createdAt,value
2022-10-25T00:00:48.820Z,100.00
2022-10-25T00:03:16.456Z,100.00
2022-10-25T00:05:45.446Z,100.00
2022-10-25T00:08:13.263Z,100.00
2022-10-25T00:10:40.895Z,100.00
2022-10-25T00:13:09.030Z,100.00
2022-10-25T00:15:36.683Z,100.00
2022-10-25T00:18:04.652Z,100.00
2022-10-25T00:20:32.316Z,100.00
2022-10-25T00:23:01.286Z,100.00
2022-10-25T00:25:28.936Z,100.00
2022-10-25T00:27:56.563Z,100.00
2022-10-25T00:30:24.165Z,100.00
2022-10-25T00:32:52.776Z,100.00
2022-10-25T00:35:20.456Z,100.00
2022-10-25T00:37:48.092Z,100.00
2022-10-25T00:40:17.353Z,100.00
2022-10-25T00:42:45.460Z,100.00
2022-10-25T00:45:21.966Z,100.00
2022-10-25T00:47:53.813Z,100.00
2022-10-25T00:50:34.752Z,100.00
2022-10-25T00:53:09.221Z,100.00
2022-10-25T00:55:42.046Z,100.00
2022-10-25T00:58:14.519Z,100.00
2022-10-25T01:00:42.455Z,100.00
2022-10-25T01:03:10.172Z,100.00
2022-10-25T01:05:38.747Z,100.00
2022-10-25T01:08:07.308Z,100.00
2022-10-25T01:10:36.920Z,100.00
2022-10-25T01:13:06.176Z,100.00
2022-10-25T01:15:40.627Z,100.00
2022-10-25T01:18:14.749Z,100.00
2022-10-25T01:21:04.649Z,100.00
2022-10-25T01:23:55.649Z,100.00
2022-10-25T01:26:44.469Z,100.00
2022-10-25T01:29:35.575Z,100.00
2022-10-25T01:32:11.290Z,100.00
2022-10-25T01:34:48.046Z,100.00
2022-10-25T01:37:25.186Z,100.00
2022-10-25T01:40:02.622Z,100.00
2022-10-25T01:42:36.187Z,100.00
2022-10-25T01:45:09.940Z,100.00
2022-10-25T01:47:45.028Z,100.00
2022-10-25T01:50:17.301Z,100.00
2022-10-25T01:52:44.990Z,100.00
2022-10-25T01:55:15.527Z,100.00
2022-10-25T01:58:02.992Z,100.00
2022-10-25T02:00:35.192Z,100.00
2022-10-25T02:03:18.118Z,100.00
2022-10-25T02:05:57.103Z,100.00
2022-10-25T02:08:34.746Z,100.00
2022-10-25T02:11:10.127Z,100.00
2022-10-25T02:13:49.806Z,100.00
2022-10-25T02:16:21.438Z,100.00
2022-10-25T02:18:55.278Z,100.00
2022-10-25T02:21:25.560Z,100.00
2022-10-25T02:23:54.810Z,100.00
2022-10-25T02:26:23.026Z,100.00
2022-10-25T02:28:51.920Z,100.00
2022-10-25T02:31:23.494Z,100.00
2022-10-25T02:33:52.760Z,100.00
2022-10-25T02:36:22.005Z,100.00
2022-10-25T02:38:51.151Z,100.00
2022-10-25T02:41:22.653Z,100.00
2022-10-25T02:43:50.582Z,100.00
2022-10-25T02:46:23.193Z,100.00
2022-10-25T02:48:53.040Z,100.00
2022-10-25T02:51:20.937Z,100.00
2022-10-25T02:53:48.593Z,100.00
2022-10-25T02:56:19.314Z,100.00
2022-10-25T02:58:51.325Z,100.00
2022-10-25T03:01:22.664Z,100.00
2022-10-25T03:03:52.021Z,100.00
2022-10-25T03:06:20.126Z,100.00
2022-10-25T03:08:47.783Z,100.00
2022-10-25T03:11:16.871Z,100.00
2022-10-25T03:13:44.723Z,100.00
2022-10-25T03:16:12.655Z,100.00
2022-10-25T03:18:40.293Z,100.00
2022-10-25T03:21:09.336Z,100.00
2022-10-25T03:23:37.128Z,100.00
2022-10-25T03:26:05.392Z,100.00
2022-10-25T03:28:33.027Z,100.00
2022-10-25T03:31:01.109Z,100.00
2022-10-25T03:35:56.885Z,100.00
2022-10-25T03:38:25.899Z,100.00
2022-10-25T03:40:54.399Z,100.00
2022-10-25T03:45:51.639Z,100.00
2022-10-25T03:48:19.303Z,100.00
2022-10-25T03:50:46.947Z,100.00
2022-10-25T03:53:14.629Z,100.00
2022-10-25T03:55:43.627Z,100.00
2022-10-25T03:58:11.304Z,100.00
2022-10-25T04:00:39.042Z,100.00
2022-10-25T04:05:34.329Z,100.00
2022-10-25T04:08:01.949Z,100.00
2022-10-25T04:10:29.603Z,100.00
2022-10-25T04:12:58.849Z,100.00
2022-10-25T04:15:26.566Z,100.00
2022-10-25T04:17:54.799Z,100.00
2022-10-25T04:20:22.942Z,100.00
2022-10-25T04:22:55.097Z,100.00
2022-10-25T04:25:23.528Z,100.00
2022-10-25T04:27:51.222Z,100.00
2022-10-25T04:30:20.861Z,100.00
2022-10-25T04:32:48.805Z,100.00
2022-10-25T04:35:16.937Z,100.00
2022-10-25T04:37:44.538Z,100.00
2022-10-25T04:40:13.151Z,100.00
2022-10-25T04:42:40.789Z,100.00
2022-10-25T04:45:09.153Z,100.00
2022-10-25T04:47:38.177Z,100.00
2022-10-25T04:50:06.493Z,100.00
2022-10-25T04:52:35.797Z,100.00
2022-10-25T04:55:03.487Z,100.00
2022-10-25T04:57:31.101Z,100.00
2022-10-25T04:59:59.189Z,100.00
2022-10-25T05:02:27.121Z,100.00
2022-10-25T05:04:56.172Z,100.00
2022-10-25T05:07:23.835Z,100.00
2022-10-25T05:09:51.551Z,100.00
2022-10-25T05:12:19.183Z,100.00
2022-10-25T05:14:46.788Z,100.00
2022-10-25T05:17:14.426Z,100.00
2022-10-25T05:19:42.048Z,100.00
2022-10-25T05:22:11.028Z,100.00
2022-10-25T05:24:38.699Z,100.00
2022-10-25T05:27:06.343Z,100.00
2022-10-25T05:29:33.961Z,100.00
2022-10-25T05:32:01.597Z,100.00
2022-10-25T05:34:29.305Z,100.00
2022-10-25T05:36:57.064Z,100.00
2022-10-25T05:39:26.048Z,100.00
2022-10-25T05:41:53.922Z,100.00
2022-10-25T05:44:21.564Z,100.00
2022-10-25T05:46:49.197Z,100.00
2022-10-25T05:49:16.826Z,100.00
2022-10-25T05:51:44.505Z,100.00
2022-10-25T05:54:14.349Z,100.00
2022-10-25T05:56:44.373Z,100.00
2022-10-25T05:59:14.343Z,100.00
2022-10-25T06:01:44.191Z,100.00
2022-10-25T06:04:12.401Z,100.00
2022-10-25T06:06:41.200Z,100.00
2022-10-25T06:09:09.256Z,100.00
2022-10-25T06:11:37.072Z,100.00
2022-10-25T06:14:06.708Z,100.00
2022-10-25T06:16:34.631Z,100.00
2022-10-25T06:19:02.306Z,100.00
2022-10-25T06:21:34.024Z,100.00
2022-10-25T06:24:01.658Z,100.00
2022-10-25T06:26:30.922Z,100.00
2022-10-25T06:29:00.773Z,100.00
2022-10-25T06:31:30.464Z,100.00
2022-10-25T06:34:00.032Z,100.00
2022-10-25T06:36:28.029Z,100.00
2022-10-25T06:38:55.769Z,100.00
2022-10-25T06:41:25.424Z,100.00
2022-10-25T06:43:53.281Z,100.00
2022-10-25T06:46:23.997Z,100.00
2022-10-25T06:48:54.361Z,100.00
2022-10-25T06:51:23.204Z,100.00
2022-10-25T06:53:54.873Z,100.00
2022-10-25T06:56:22.545Z,100.00
2022-10-25T06:58:50.203Z,100.00
2022-10-25T07:01:20.360Z,100.00
2022-10-25T07:03:50.432Z,100.00
2022-10-25T07:06:22.947Z,100.00
2022-10-25T07:08:54.883Z,100.00
2022-10-25T07:11:23.714Z,100.00
2022-10-25T07:13:51.373Z,100.00
2022-10-25T07:16:21.293Z,100.00
2022-10-25T07:18:49.851Z,100.00
2022-10-25T07:21:20.775Z,100.00
2022-10-25T07:23:49.226Z,100.00
2022-10-25T07:26:18.959Z,100.00
2022-10-25T07:28:48.476Z,100.00
2022-10-25T07:31:17.518Z,100.00
2022-10-25T07:33:45.276Z,100.00
2022-10-25T07:36:12.915Z,100.00
2022-10-25T07:38:42.051Z,100.00
2022-10-25T07:41:10.604Z,100.00
2022-10-25T07:43:38.349Z,100.00
2022-10-25T07:46:06.909Z,100.00
2022-10-25T07:48:34.970Z,100.00
2022-10-25T07:51:05.300Z,100.00
2022-10-25T07:53:32.988Z,100.00
2022-10-25T07:56:02.254Z,100.00
2022-10-25T07:58:29.910Z,100.00
2022-10-25T08:01:02.262Z,100.00
2022-10-25T08:03:30.404Z,100.00
2022-10-25T08:06:01.144Z,100.00
2022-10-25T08:08:31.839Z,100.00
2022-10-25T08:10:59.612Z,100.00
2022-10-25T08:13:28.647Z,100.00
2022-10-25T08:15:57.513Z,100.00
2022-10-25T08:18:25.878Z,100.00
2022-10-25T08:21:02.632Z,100.00
2022-10-25T08:23:32.367Z,100.00
2022-10-25T08:26:00.340Z,100.00
2022-10-25T08:28:30.999Z,100.00
2022-10-25T08:30:58.718Z,100.00
2022-10-25T08:33:26.385Z,100.00
2022-10-25T08:35:54.073Z,100.00
2022-10-25T08:38:21.724Z,100.00
2022-10-25T08:40:58.122Z,100.00
2022-10-25T08:43:41.692Z,100.00
2022-10-25T08:46:17.560Z,100.00
2022-10-25T08:48:50.204Z,100.00
2022-10-25T08:51:25.649Z,100.00
2022-10-25T08:53:57.904Z,100.00
2022-10-25T08:56:26.740Z,100.00
2022-10-25T08:58:58.215Z,100.00
2022-10-25T09:01:30.138Z,100.00
2022-10-25T09:04:00.203Z,100.00
2022-10-25T09:06:35.456Z,100.00
2022-10-25T09:09:18.866Z,100.00
2022-10-25T09:12:03.407Z,100.00
2022-10-25T09:14:45.891Z,100.00
2022-10-25T09:17:18.950Z,100.00
2022-10-25T09:20:03.316Z,100.00
2022-10-25T09:22:32.704Z,100.00
2022-10-25T09:25:03.934Z,100.00
2022-10-25T09:27:37.068Z,100.00
2022-10-25T09:30:12.654Z,100.00
2022-10-25T09:32:40.870Z,100.00
2022-10-25T09:35:16.460Z,100.00
2022-10-25T09:37:46.605Z,100.00
2022-10-25T09:40:18.751Z,100.00
2022-10-25T09:42:52.061Z,100.00
2022-10-25T09:45:27.383Z,100.00
2022-10-25T09:48:05.397Z,100.00
2022-10-25T09:50:38.313Z,100.00
2022-10-25T09:53:12.074Z,100.00
2022-10-25T09:55:45.324Z,100.00
2022-10-25T09:58:20.058Z,100.00
2022-10-25T10:00:50.517Z,100.00
2022-10-25T10:03:18.438Z,100.00
2022-10-25T10:05:50.985Z,100.00
2022-10-25T10:08:18.886Z,100.00
2022-10-25T10:10:49.013Z,100.00
2022-10-25T10:13:21.850Z,100.00
2022-10-25T10:15:55.635Z,100.00
2022-10-25T10:18:29.249Z,100.00
2022-10-25T10:21:03.289Z,100.00
2022-10-25T10:23:34.052Z,100.00
2022-10-25T10:26:04.229Z,100.00
2022-10-25T10:28:32.493Z,100.00
2022-10-25T10:31:02.699Z,100.00
2022-10-25T10:33:34.068Z,100.00
2022-10-25T10:36:27.570Z,100.00
2022-10-25T10:38:56.381Z,100.00
2022-10-25T10:41:27.202Z,100.00
2022-10-25T10:44:09.708Z,100.00
2022-10-25T10:46:45.151Z,100.00
2022-10-25T10:49:13.892Z,100.00
2022-10-25T10:51:45.128Z,100.00
2022-10-25T10:54:31.771Z,100.00
2022-10-25T10:57:01.864Z,100.00
2022-10-25T10:59:52.017Z,100.00
2022-10-25T11:02:28.722Z,100.00
2022-10-25T11:04:57.963Z,100.00
2022-10-25T11:07:30.520Z,100.00
2022-10-25T11:10:21.295Z,100.00
2022-10-25T11:13:15.138Z,100.00
2022-10-25T11:16:14.912Z,100.00
2022-10-25T11:18:57.562Z,100.00
2022-10-25T11:21:51.169Z,100.00
2022-10-25T11:24:29.283Z,100.00
2022-10-25T11:27:05.106Z,100.00
2022-10-25T11:29:56.477Z,100.00
2022-10-25T11:32:44.572Z,100.00
2022-10-25T11:35:34.072Z,100.00
2022-10-25T11:38:08.259Z,98.40
2022-10-25T11:40:42.069Z,91.61
2022-10-25T11:43:28.147Z,91.34
2022-10-25T11:46:00.438Z,89.66
2022-10-25T11:48:43.650Z,86.41
2022-10-25T11:51:24.716Z,87.49
2022-10-25T11:54:08.188Z,81.01
2022-10-25T11:56:48.635Z,85.91
2022-10-25T11:59:23.351Z,83.79
2022-10-25T12:02:13.788Z,86.34
2022-10-25T12:04:57.590Z,78.63
2022-10-25T12:07:32.304Z,81.84
2022-10-25T12:10:10.508Z,85.85
2022-10-25T12:12:44.218Z,89.15
2022-10-25T12:15:20.071Z,86.76
2022-10-25T12:17:49.448Z,85.47
2022-10-25T12:20:23.600Z,87.07
2022-10-25T12:22:55.668Z,90.53
2022-10-25T12:25:27.407Z,84.60
2022-10-25T12:28:03.787Z,85.61
2022-10-25T12:30:34.058Z,86.73
2022-10-25T12:33:11.033Z,89.55
2022-10-25T12:35:46.317Z,88.36
2022-10-25T12:38:21.954Z,90.51
2022-10-25T12:40:52.181Z,89.31
2022-10-25T12:43:26.891Z,88.98
2022-10-25T12:46:25.691Z,91.23
2022-10-25T12:49:12.323Z,91.41
2022-10-25T12:51:58.921Z,94.63
2022-10-25T12:54:52.173Z,91.75
2022-10-25T12:57:27.989Z,97.55
2022-10-25T13:00:10.056Z,94.83
2022-10-25T13:03:04.660Z,96.81
2022-10-25T13:06:09.981Z,94.60
2022-10-25T13:08:40.313Z,98.75
2022-10-25T13:11:10.620Z,100.00
2022-10-25T13:13:41.300Z,100.00
2022-10-25T13:16:10.977Z,100.00
2022-10-25T13:18:46.659Z,98.24
2022-10-25T13:21:16.452Z,99.54
2022-10-25T13:24:02.942Z,98.72
2022-10-25T13:27:13.093Z,100.00
2022-10-25T13:30:03.964Z,100.00
2022-10-25T13:32:33.582Z,99.76
2022-10-25T13:35:03.576Z,98.93
2022-10-25T13:37:45.801Z,98.20
2022-10-25T13:40:27.837Z,80.68
2022-10-25T13:43:02.874Z,74.55
2022-10-25T13:45:36.807Z,70.05
2022-10-25T13:48:22.741Z,67.68
2022-10-25T13:50:52.993Z,65.92
2022-10-25T13:53:24.274Z,62.18
2022-10-25T13:56:03.779Z,59.51
2022-10-25T13:58:57.048Z,60.22
2022-10-25T14:01:55.631Z,59.58
2022-10-25T14:04:41.202Z,56.12
2022-10-25T14:07:46.002Z,54.40
2022-10-25T14:10:26.654Z,53.46
2022-10-25T14:12:59.963Z,52.66
2022-10-25T14:15:40.832Z,50.06
2022-10-25T14:18:13.184Z,52.23
2022-10-25T14:20:40.937Z,56.18
2022-10-25T14:23:16.886Z,61.19
2022-10-25T14:25:51.940Z,70.27
2022-10-25T14:28:24.022Z,82.64
2022-10-25T14:30:55.258Z,91.38
2022-10-25T14:33:29.031Z,98.98
2022-10-25T14:35:58.743Z,100.00
2022-10-25T14:38:28.804Z,100.00
2022-10-25T14:40:58.561Z,100.00
2022-10-25T14:43:32.052Z,100.00
2022-10-25T14:46:04.648Z,100.00
2022-10-25T14:48:32.667Z,100.00
2022-10-25T14:51:05.580Z,100.00
2022-10-25T14:53:34.105Z,100.00
2022-10-25T14:56:04.838Z,100.00
2022-10-25T14:58:41.139Z,100.00
2022-10-25T15:01:11.610Z,100.00
2022-10-25T15:03:42.973Z,100.00
2022-10-25T15:06:10.870Z,100.00
2022-10-25T15:08:42.061Z,100.00
2022-10-25T15:11:15.740Z,100.00
2022-10-25T15:13:45.238Z,100.00
2022-10-25T15:16:34.341Z,100.00
2022-10-25T15:19:07.530Z,100.00
2022-10-25T15:21:43.517Z,100.00
2022-10-25T15:24:19.518Z,100.00
2022-10-25T15:26:55.427Z,100.00
2022-10-25T15:32:24.190Z,100.00
2022-10-25T15:34:53.750Z,100.00
2022-10-25T15:37:23.741Z,100.00
2022-10-25T15:40:01.233Z,100.00
2022-10-25T15:42:28.967Z,100.00
2022-10-25T15:44:57.792Z,100.00
2022-10-25T15:47:32.630Z,100.00
2022-10-25T15:50:02.705Z,100.00
2022-10-25T15:52:30.661Z,100.00
2022-10-25T15:54:58.313Z,100.00
2022-10-25T15:57:27.301Z,100.00
2022-10-25T15:59:55.104Z,100.00
2022-10-25T16:02:27.016Z,100.00
2022-10-25T16:04:56.167Z,100.00
2022-10-25T16:07:24.160Z,100.00
2022-10-25T16:09:51.877Z,100.00
2022-10-25T16:12:22.629Z,100.00
2022-10-25T16:14:52.907Z,100.00
2022-10-25T16:17:20.625Z,100.00
2022-10-25T16:19:48.258Z,100.00
2022-10-25T16:22:17.364Z,100.00
2022-10-25T16:24:45.151Z,100.00
2022-10-25T16:27:13.786Z,100.00
2022-10-25T16:29:41.968Z,100.00
2022-10-25T16:32:09.611Z,100.00
2022-10-25T16:34:37.732Z,100.00
2022-10-25T16:37:07.812Z,100.00
2022-10-25T16:39:39.622Z,100.00
2022-10-25T16:42:28.062Z,100.00
2022-10-25T16:44:55.767Z,100.00
2022-10-25T16:47:25.609Z,100.00
2022-10-25T16:49:53.845Z,100.00
2022-10-25T16:52:22.187Z,100.00
2022-10-25T16:54:54.053Z,100.00
2022-10-25T16:57:21.771Z,100.00
2022-10-25T16:59:50.530Z,100.00
2022-10-25T17:02:21.045Z,100.00
2022-10-25T17:04:49.471Z,100.00
2022-10-25T17:07:17.385Z,100.00
2022-10-25T17:09:45.139Z,100.00
2022-10-25T17:12:14.239Z,100.00
2022-10-25T17:14:42.120Z,100.00
2022-10-25T17:17:09.908Z,100.00
2022-10-25T17:19:37.754Z,100.00
2022-10-25T17:22:05.414Z,100.00
2022-10-25T17:24:37.243Z,100.00
2022-10-25T17:29:39.240Z,100.00
2022-10-25T17:32:07.190Z,100.00
2022-10-25T17:34:34.880Z,100.00
2022-10-25T17:37:03.760Z,100.00
2022-10-25T17:39:31.577Z,100.00
2022-10-25T17:41:59.294Z,100.00
2022-10-25T17:44:27.039Z,100.00
2022-10-25T17:46:58.317Z,100.00
2022-10-25T17:49:28.547Z,100.00
2022-10-25T17:51:56.174Z,100.00
2022-10-25T17:54:23.835Z,100.00
2022-10-25T17:56:55.677Z,100.00
2022-10-25T17:59:23.278Z,100.00
2022-10-25T18:01:51.171Z,100.00
2022-10-25T18:04:20.383Z,100.00
2022-10-25T18:06:48.090Z,100.00
2022-10-25T18:09:16.217Z,100.00
2022-10-25T18:11:45.358Z,100.00
2022-10-25T18:14:13.173Z,100.00
2022-10-25T18:16:41.400Z,100.00
2022-10-25T18:19:14.056Z,100.00
2022-10-25T18:21:43.147Z,100.00
2022-10-25T18:24:13.217Z,100.00
2022-10-25T18:26:40.857Z,100.00
2022-10-25T18:29:09.872Z,100.00
2022-10-25T18:31:37.531Z,100.00
2022-10-25T18:34:05.178Z,100.00
2022-10-25T18:36:33.004Z,100.00
2022-10-25T18:39:01.969Z,100.00
2022-10-25T18:41:31.697Z,100.00
2022-10-25T18:44:00.270Z,100.00
2022-10-25T18:46:30.684Z,100.00
2022-10-25T18:48:58.666Z,100.00
2022-10-25T18:51:28.777Z,100.00
2022-10-25T18:53:57.380Z,100.00
2022-10-25T18:56:27.110Z,100.00
2022-10-25T18:58:56.705Z,100.00
2022-10-25T19:01:27.845Z,100.00
2022-10-25T19:03:57.713Z,100.00
2022-10-25T19:06:26.063Z,100.00
2022-10-25T19:08:54.177Z,100.00
2022-10-25T19:11:24.529Z,100.00
2022-10-25T19:13:55.546Z,100.00
2022-10-25T19:16:24.021Z,100.00
2022-10-25T19:18:51.792Z,100.00
2022-10-25T19:21:20.031Z,100.00
2022-10-25T19:23:48.479Z,100.00
2022-10-25T19:26:19.033Z,100.00
2022-10-25T19:28:47.728Z,100.00
2022-10-25T19:31:18.945Z,100.00
2022-10-25T19:33:47.442Z,100.00
2022-10-25T19:36:18.069Z,100.00
2022-10-25T19:38:48.203Z,100.00
2022-10-25T19:41:18.123Z,100.00
2022-10-25T19:43:45.988Z,100.00
2022-10-25T19:46:14.676Z,100.00
2022-10-25T19:48:43.826Z,100.00
2022-10-25T19:51:13.387Z,100.00
2022-10-25T19:53:41.304Z,100.00
2022-10-25T19:56:11.623Z,100.00
2022-10-25T19:58:39.384Z,100.00
2022-10-25T20:01:09.629Z,100.00
2022-10-25T20:03:38.067Z,100.00
2022-10-25T20:06:09.305Z,100.00
2022-10-25T20:08:39.224Z,100.00
2022-10-25T20:11:07.681Z,100.00
2022-10-25T20:13:35.674Z,100.00
2022-10-25T20:16:08.930Z,100.00
2022-10-25T20:18:38.423Z,100.00
2022-10-25T20:21:11.244Z,100.00
2022-10-25T20:23:39.967Z,100.00
2022-10-25T20:26:14.596Z,100.00
2022-10-25T20:28:42.581Z,100.00
2022-10-25T20:31:10.578Z,100.00
2022-10-25T20:33:39.498Z,100.00
2022-10-25T20:36:11.920Z,100.00
2022-10-25T20:38:40.091Z,100.00
2022-10-25T20:41:10.938Z,100.00
2022-10-25T20:43:39.089Z,100.00
2022-10-25T20:46:07.839Z,100.00
2022-10-25T20:48:35.934Z,100.00
2022-10-25T20:51:06.970Z,100.00
2022-10-25T20:53:37.177Z,100.00
2022-10-25T20:56:05.280Z,100.00
2022-10-25T20:58:34.693Z,100.00
2022-10-25T21:01:03.135Z,100.00
2022-10-25T21:03:32.098Z,100.00
2022-10-25T21:06:04.573Z,100.00
2022-10-25T21:08:32.851Z,100.00
2022-10-25T21:11:03.238Z,100.00
2022-10-25T21:13:32.612Z,100.00
2022-10-25T21:16:05.188Z,100.00
2022-10-25T21:18:32.801Z,100.00
2022-10-25T21:21:02.075Z,100.00
2022-10-25T21:23:31.040Z,100.00
2022-10-25T21:25:59.511Z,100.00
2022-10-25T21:28:33.148Z,100.00
2022-10-25T21:31:05.396Z,100.00
2022-10-25T21:33:33.036Z,100.00
2022-10-25T21:36:04.121Z,100.00
2022-10-25T21:38:31.769Z,100.00
2022-10-25T21:41:06.525Z,100.00
2022-10-25T21:43:35.936Z,100.00
2022-10-25T21:46:13.608Z,100.00
2022-10-25T21:48:41.923Z,100.00
2022-10-25T21:51:09.553Z,100.00
2022-10-25T21:53:37.663Z,100.00
2022-10-25T21:56:07.406Z,100.00
2022-10-25T21:58:36.389Z,100.00
2022-10-25T22:01:07.418Z,100.00
2022-10-25T22:03:35.154Z,100.00
2022-10-25T22:06:03.219Z,100.00
2022-10-25T22:08:30.840Z,100.00
2022-10-25T22:13:35.790Z,100.00
2022-10-25T22:16:08.016Z,100.00
2022-10-25T22:18:36.024Z,100.00
2022-10-25T22:21:06.473Z,100.00
2022-10-25T22:23:34.586Z,100.00
2022-10-25T22:26:06.274Z,100.00
2022-10-25T22:28:38.256Z,100.00
2022-10-25T22:31:11.261Z,100.00
2022-10-25T22:33:39.817Z,100.00
2022-10-25T22:36:09.126Z,100.00
2022-10-25T22:38:37.144Z,100.00
2022-10-25T22:41:06.858Z,100.00
2022-10-25T22:43:35.394Z,100.00
2022-10-25T22:46:04.311Z,100.00
2022-10-25T22:48:33.737Z,100.00
2022-10-25T22:51:01.849Z,100.00
2022-10-25T22:53:29.757Z,100.00
2022-10-25T22:55:59.118Z,100.00
2022-10-25T23:04:45.157Z,100.00
2022-10-25T23:07:12.816Z,100.00
2022-10-25T23:09:40.409Z,100.00
2022-10-25T23:12:08.110Z,100.00
2022-10-25T23:14:35.705Z,100.00
2022-10-25T23:17:03.361Z,100.00
2022-10-25T23:19:30.961Z,100.00
2022-10-25T23:21:59.974Z,100.00
2022-10-25T23:24:27.656Z,100.00
2022-10-25T23:26:55.265Z,100.00
2022-10-25T23:29:22.884Z,100.00
2022-10-25T23:31:50.518Z,100.00
2022-10-25T23:34:18.176Z,100.00
2022-10-25T23:36:47.271Z,100.00
2022-10-25T23:39:16.252Z,100.00
2022-10-25T23:41:44.830Z,100.00
2022-10-25T23:44:12.425Z,100.00
2022-10-25T23:46:40.008Z,100.00
2022-10-25T23:49:07.641Z,100.00
2022-10-25T23:51:36.116Z,100.00
2022-10-25T23:54:04.340Z,100.00
2022-10-25T23:56:33.272Z,100.00
2022-10-25T23:59:00.887Z,100.00
